createdAt,value
2023-01-12T00:00:50.976Z,77.75
2023-01-12T00:01:50.953Z,77.65
2023-01-12T00:02:50.925Z,77.75
2023-01-12T00:03:50.946Z,77.85
2023-01-12T00:04:50.997Z,77.95
2023-01-12T00:05:50.872Z,78.16
2023-01-12T00:06:50.896Z,77.85
2023-01-12T00:07:50.980Z,78.06
2023-01-12T00:08:50.842Z,77.95
2023-01-12T00:09:50.849Z,77.95
2023-01-12T00:10:50.817Z,78.06
2023-01-12T00:11:50.824Z,78.16
2023-01-12T00:12:50.799Z,78.06
2023-01-12T00:13:50.766Z,77.95
2023-01-12T00:14:50.815Z,78.06
2023-01-12T00:15:50.775Z,77.95
2023-01-12T00:16:50.731Z,77.85
2023-01-12T00:17:50.717Z,77.85
2023-01-12T00:18:50.709Z,77.81
2023-01-12T00:19:50.726Z,77.85
2023-01-12T00:20:50.676Z,77.92
2023-01-12T00:21:50.750Z,78.02
2023-01-12T00:22:50.657Z,78.53
2023-01-12T00:23:50.646Z,78.36
2023-01-12T00:24:50.654Z,77.92
2023-01-12T00:25:50.612Z,77.92
2023-01-12T00:26:50.626Z,77.71
2023-01-12T00:27:50.586Z,77.81
2023-01-12T00:28:50.606Z,77.92
2023-01-12T00:29:50.630Z,78.12
2023-01-12T00:30:50.558Z,77.92
2023-01-12T00:31:50.545Z,77.71
2023-01-12T00:32:50.515Z,77.81
2023-01-12T00:33:50.507Z,77.92
2023-01-12T00:34:50.536Z,77.81
2023-01-12T00:35:50.478Z,77.71
2023-01-12T00:36:50.505Z,77.81
2023-01-12T00:37:50.458Z,77.81
2023-01-12T00:38:50.489Z,77.71
2023-01-12T00:40:01.918Z,77.92
2023-01-12T00:40:51.474Z,78.02
2023-01-12T00:41:50.416Z,77.92
2023-01-12T00:42:50.400Z,78.02
2023-01-12T00:43:50.377Z,78.23
2023-01-12T00:44:50.366Z,78.02
2023-01-12T00:45:50.447Z,78.02
2023-01-12T00:46:50.382Z,78.33
2023-01-12T00:47:50.336Z,78.74
2023-01-12T00:48:50.307Z,78.94
2023-01-12T00:49:50.296Z,79.05
2023-01-12T00:50:50.305Z,79.25
2023-01-12T00:51:50.269Z,79.36
2023-01-12T00:52:50.259Z,79.46
2023-01-12T00:53:50.268Z,80.18
2023-01-12T00:54:50.236Z,80.28
2023-01-12T00:55:50.243Z,80.69
2023-01-12T00:56:50.197Z,80.79
2023-01-12T00:57:50.210Z,80.58
2023-01-12T00:58:50.186Z,80.83
2023-01-12T00:59:50.166Z,80.52
2023-01-12T01:00:50.224Z,80.58
2023-01-12T01:01:50.262Z,80.93
2023-01-12T01:02:50.259Z,80.83
2023-01-12T01:03:50.117Z,81.04
2023-01-12T01:04:50.107Z,80.93
2023-01-12T01:05:50.111Z,81.34
2023-01-12T01:06:50.098Z,81.55
2023-01-12T01:07:50.092Z,81.45
2023-01-12T01:08:50.064Z,81.45
2023-01-12T01:09:50.046Z,82.17
2023-01-12T01:10:50.048Z,82.47
2023-01-12T01:11:50.023Z,82.57
2023-01-12T01:12:50.028Z,82.78
2023-01-12T01:13:49.986Z,82.57
2023-01-12T01:14:49.967Z,82.37
2023-01-12T01:15:49.990Z,82.99
2023-01-12T01:16:50.021Z,83.29
2023-01-12T01:17:49.946Z,82.99
2023-01-12T01:18:49.945Z,82.99
2023-01-12T01:19:49.919Z,82.89
2023-01-12T01:20:49.916Z,83.09
2023-01-12T01:21:49.894Z,82.68
2023-01-12T01:22:49.866Z,83.29
2023-01-12T01:23:49.863Z,82.99
2023-01-12T01:24:49.871Z,83.29
2023-01-12T01:25:49.828Z,83.50
2023-01-12T01:26:49.833Z,83.91
2023-01-12T01:27:49.795Z,83.70
2023-01-12T01:28:49.785Z,84.01
2023-01-12T01:29:49.786Z,84.53
2023-01-12T01:30:49.819Z,84.74
2023-01-12T01:31:49.737Z,84.63
2023-01-12T01:32:49.737Z,84.77
2023-01-12T01:33:49.720Z,85.18
2023-01-12T01:34:49.708Z,84.98
2023-01-12T01:35:49.705Z,85.18
2023-01-12T01:36:49.694Z,85.28
2023-01-12T01:37:49.668Z,85.39
2023-01-12T01:38:49.650Z,85.49
2023-01-12T01:39:49.673Z,85.80
2023-01-12T01:40:49.645Z,85.90
2023-01-12T01:41:49.616Z,86.00
2023-01-12T01:42:49.588Z,85.90
2023-01-12T01:43:49.586Z,85.60
2023-01-12T01:44:49.575Z,84.98
2023-01-12T01:45:49.585Z,84.88
2023-01-12T01:46:49.582Z,84.67
2023-01-12T01:47:49.527Z,85.18
2023-01-12T01:48:49.516Z,85.49
2023-01-12T01:49:49.532Z,85.70
2023-01-12T01:50:49.537Z,85.49
2023-01-12T01:51:49.486Z,85.49
2023-01-12T01:52:49.477Z,85.39
2023-01-12T01:53:49.447Z,85.60
2023-01-12T01:54:49.467Z,86.00
2023-01-12T01:55:49.447Z,86.11
2023-01-12T01:56:49.428Z,86.32
2023-01-12T01:57:49.405Z,86.52
2023-01-12T01:58:49.386Z,85.90
2023-01-12T01:59:49.379Z,85.70
2023-01-12T02:00:49.401Z,85.80
2023-01-12T02:01:49.374Z,86.00
2023-01-12T02:02:49.351Z,86.21
2023-01-12T02:03:49.317Z,85.90
2023-01-12T02:04:49.309Z,85.60
2023-01-12T02:05:49.302Z,85.18
2023-01-12T02:06:49.310Z,85.08
2023-01-12T02:07:49.278Z,85.28
2023-01-12T02:08:49.257Z,85.60
2023-01-12T02:09:49.249Z,85.18
2023-01-12T02:10:49.226Z,85.08
2023-01-12T02:11:49.309Z,85.08
2023-01-12T02:12:49.223Z,84.98
2023-01-12T02:13:49.198Z,84.98
2023-01-12T02:14:49.941Z,83.85
2023-01-12T02:15:49.208Z,83.95
2023-01-12T02:16:49.190Z,84.05
2023-01-12T02:17:49.137Z,83.54
2023-01-12T02:18:49.128Z,83.29
2023-01-12T02:19:49.116Z,83.40
2023-01-12T02:20:49.097Z,83.50
2023-01-12T02:21:49.107Z,83.09
2023-01-12T02:22:49.067Z,83.09
2023-01-12T02:23:49.082Z,83.09
2023-01-12T02:24:49.047Z,83.29
2023-01-12T02:25:49.028Z,83.09
2023-01-12T02:26:49.037Z,83.50
2023-01-12T02:27:49.019Z,83.50
2023-01-12T02:28:48.986Z,84.22
2023-01-12T02:29:48.993Z,84.12
2023-01-12T02:30:48.960Z,84.12
2023-01-12T02:31:48.966Z,83.91
2023-01-12T02:32:48.928Z,83.40
2023-01-12T02:33:48.936Z,83.19
2023-01-12T02:34:48.914Z,83.50
2023-01-12T02:35:48.896Z,83.50
2023-01-12T02:36:48.888Z,83.61
2023-01-12T02:37:48.867Z,82.78
2023-01-12T02:38:48.879Z,82.78
2023-01-12T02:39:48.841Z,82.89
2023-01-12T02:40:48.843Z,82.99
2023-01-12T02:41:48.834Z,82.99
2023-01-12T02:42:48.797Z,83.09
2023-01-12T02:43:48.786Z,82.89
2023-01-12T02:44:48.787Z,82.78
2023-01-12T02:45:48.762Z,82.27
2023-01-12T02:46:48.798Z,82.47
2023-01-12T02:47:48.774Z,82.37
2023-01-12T02:48:48.722Z,82.17
2023-01-12T02:49:48.727Z,82.17
2023-01-12T02:50:48.697Z,82.06
2023-01-12T02:51:48.691Z,81.92
2023-01-12T02:52:48.675Z,82.23
2023-01-12T02:53:48.659Z,82.03
2023-01-12T02:54:48.659Z,82.03
2023-01-12T02:55:48.640Z,81.92
2023-01-12T02:56:48.633Z,82.03
2023-01-12T02:57:48.612Z,81.92
2023-01-12T02:58:48.590Z,82.23
2023-01-12T02:59:48.607Z,82.13
2023-01-12T03:00:48.570Z,82.13
2023-01-12T03:01:48.628Z,81.92
2023-01-12T03:02:48.553Z,82.13
2023-01-12T03:03:48.527Z,82.33
2023-01-12T03:04:48.517Z,82.43
2023-01-12T03:05:48.516Z,82.13
2023-01-12T03:06:48.477Z,82.13
2023-01-12T03:07:48.461Z,82.13
2023-01-12T03:08:48.467Z,82.43
2023-01-12T03:09:48.458Z,81.92
2023-01-12T03:10:48.447Z,82.13
2023-01-12T03:11:48.425Z,82.23
2023-01-12T03:12:48.422Z,82.13
2023-01-12T03:13:48.393Z,82.23
2023-01-12T03:14:48.397Z,82.43
2023-01-12T03:15:48.391Z,81.92
2023-01-12T03:16:48.353Z,81.71
2023-01-12T03:17:48.337Z,81.62
2023-01-12T03:18:48.331Z,81.10
2023-01-12T03:19:48.339Z,81.30
2023-01-12T03:20:48.292Z,81.62
2023-01-12T03:21:48.300Z,81.30
2023-01-12T03:22:48.268Z,81.00
2023-01-12T03:23:48.248Z,81.30
2023-01-12T03:24:48.257Z,81.10
2023-01-12T03:25:48.247Z,81.41
2023-01-12T03:26:48.224Z,81.20
2023-01-12T03:27:48.198Z,80.90
2023-01-12T03:28:48.203Z,81.10
2023-01-12T03:29:48.176Z,81.10
2023-01-12T03:30:48.191Z,81.00
2023-01-12T03:31:48.140Z,81.10
2023-01-12T03:32:48.149Z,81.10
2023-01-12T03:33:48.143Z,81.20
2023-01-12T03:34:48.129Z,81.30
2023-01-12T03:35:48.118Z,81.41
2023-01-12T03:36:48.087Z,81.62
2023-01-12T03:37:48.071Z,81.41
2023-01-12T03:38:48.059Z,81.20
2023-01-12T03:39:48.044Z,81.20
2023-01-12T03:40:48.171Z,81.10
2023-01-12T03:41:48.023Z,81.30
2023-01-12T03:42:48.170Z,81.10
2023-01-12T03:43:47.989Z,81.00
2023-01-12T03:44:47.977Z,80.90
2023-01-12T03:45:48.010Z,81.00
2023-01-12T03:46:48.016Z,81.20
2023-01-12T03:47:47.939Z,81.10
2023-01-12T03:48:47.939Z,81.30
2023-01-12T03:49:47.908Z,81.10
2023-01-12T03:50:47.952Z,81.20
2023-01-12T03:51:47.888Z,81.20
2023-01-12T03:52:47.880Z,80.49
2023-01-12T03:53:47.848Z,80.18
2023-01-12T03:54:47.849Z,80.35
2023-01-12T03:55:47.874Z,80.76
2023-01-12T03:56:47.829Z,80.86
2023-01-12T03:57:47.818Z,80.65
2023-01-12T03:58:47.802Z,81.16
2023-01-12T03:59:47.769Z,80.90
2023-01-12T04:00:47.841Z,80.45
2023-01-12T04:01:48.059Z,80.45
2023-01-12T04:02:47.751Z,80.45
2023-01-12T04:03:47.720Z,80.76
2023-01-12T04:04:47.715Z,80.18
2023-01-12T04:05:47.721Z,80.55
2023-01-12T04:06:47.689Z,80.55
2023-01-12T04:07:47.679Z,80.45
2023-01-12T04:08:47.689Z,80.65
2023-01-12T04:09:47.649Z,80.65
2023-01-12T04:10:47.650Z,80.79
2023-01-12T04:11:47.619Z,80.65
2023-01-12T04:12:47.613Z,80.45
2023-01-12T04:13:47.598Z,80.24
2023-01-12T04:14:48.239Z,80.14
2023-01-12T04:15:47.715Z,80.14
2023-01-12T04:16:47.552Z,80.55
2023-01-12T04:17:47.527Z,80.86
2023-01-12T04:18:47.530Z,80.96
2023-01-12T04:19:47.508Z,80.35
2023-01-12T04:20:47.509Z,80.24
2023-01-12T04:21:47.489Z,80.24
2023-01-12T04:22:47.478Z,80.35
2023-01-12T04:23:47.471Z,80.24
2023-01-12T04:24:47.453Z,80.14
2023-01-12T04:25:47.456Z,80.04
2023-01-12T04:26:47.417Z,80.24
2023-01-12T04:27:47.435Z,80.04
2023-01-12T04:28:47.399Z,79.93
2023-01-12T04:29:47.388Z,79.83
2023-01-12T04:30:47.368Z,79.83
2023-01-12T04:31:47.407Z,80.04
2023-01-12T04:32:47.348Z,80.35
2023-01-12T04:33:47.309Z,80.24
2023-01-12T04:34:47.306Z,80.14
2023-01-12T04:35:47.433Z,80.24
2023-01-12T04:36:47.297Z,80.04
2023-01-12T04:37:47.271Z,80.14
2023-01-12T04:38:47.263Z,80.14
2023-01-12T04:39:47.251Z,80.04
2023-01-12T04:40:47.239Z,80.04
2023-01-12T04:41:47.239Z,79.93
2023-01-12T04:42:47.209Z,80.14
2023-01-12T04:43:47.200Z,79.52
2023-01-12T04:44:47.181Z,80.04
2023-01-12T04:45:47.195Z,80.14
2023-01-12T04:46:47.179Z,80.24
2023-01-12T04:47:47.165Z,80.35
2023-01-12T04:48:47.129Z,80.35
2023-01-12T04:49:47.110Z,80.55
2023-01-12T04:50:47.140Z,80.55
2023-01-12T04:51:47.101Z,80.24
2023-01-12T04:52:47.070Z,80.35
2023-01-12T04:53:47.049Z,80.76
2023-01-12T04:54:47.058Z,81.16
2023-01-12T04:55:54.568Z,80.86
2023-01-12T04:56:47.056Z,80.76
2023-01-12T04:57:47.030Z,80.45
2023-01-12T04:58:47.023Z,80.55
2023-01-12T04:59:46.991Z,80.76
2023-01-12T05:00:47.001Z,80.96
2023-01-12T05:01:47.016Z,81.27
2023-01-12T05:02:46.936Z,81.10
2023-01-12T05:03:46.950Z,80.86
2023-01-12T05:04:46.926Z,80.65
2023-01-12T05:05:46.897Z,80.76
2023-01-12T05:06:46.905Z,80.86
2023-01-12T05:07:46.867Z,80.86
2023-01-12T05:08:46.860Z,80.45
2023-01-12T05:09:46.848Z,80.55
2023-01-12T05:10:46.943Z,80.65
2023-01-12T05:11:46.857Z,80.86
2023-01-12T05:12:46.808Z,80.86
2023-01-12T05:13:46.787Z,80.86
2023-01-12T05:14:46.789Z,80.96
2023-01-12T05:15:46.790Z,81.16
2023-01-12T05:16:46.908Z,81.16
2023-01-12T05:17:46.741Z,81.27
2023-01-12T05:18:46.745Z,81.57
2023-01-12T05:19:46.715Z,81.48
2023-01-12T05:20:46.712Z,81.48
2023-01-12T05:21:46.707Z,81.71
2023-01-12T05:22:46.693Z,81.62
2023-01-12T05:23:46.656Z,81.71
2023-01-12T05:24:46.655Z,81.71
2023-01-12T05:25:46.627Z,81.82
2023-01-12T05:26:46.657Z,82.03
2023-01-12T05:27:46.608Z,81.82
2023-01-12T05:28:46.597Z,81.92
2023-01-12T05:29:46.585Z,81.92
2023-01-12T05:30:46.623Z,81.92
2023-01-12T05:31:46.554Z,82.13
2023-01-12T05:32:46.560Z,82.23
2023-01-12T05:33:46.558Z,82.23
2023-01-12T05:34:46.551Z,82.43
2023-01-12T05:35:46.505Z,82.13
2023-01-12T05:36:46.487Z,82.33
2023-01-12T05:37:46.488Z,82.23
2023-01-12T05:38:46.506Z,82.43
2023-01-12T05:39:46.436Z,82.54
2023-01-12T05:40:46.442Z,82.54
2023-01-12T05:41:46.407Z,83.05
2023-01-12T05:42:46.446Z,83.15
2023-01-12T05:43:46.398Z,82.95
2023-01-12T05:44:46.387Z,83.36
2023-01-12T05:45:46.441Z,83.56
2023-01-12T05:46:46.358Z,83.05
2023-01-12T05:47:46.356Z,82.84
2023-01-12T05:48:46.341Z,82.84
2023-01-12T05:49:46.317Z,82.75
2023-01-12T05:50:46.306Z,82.54
2023-01-12T05:51:46.298Z,82.43
2023-01-12T05:52:46.315Z,82.43
2023-01-12T05:53:46.247Z,87.43
2023-01-12T05:54:46.250Z,87.59
2023-01-12T05:55:46.267Z,89.19
2023-01-12T05:56:47.519Z,89.25
2023-01-12T05:57:46.230Z,88.23
2023-01-12T05:58:46.252Z,85.42
2023-01-12T05:59:46.192Z,85.31
2023-01-12T06:00:46.166Z,83.98
2023-01-12T06:01:46.184Z,83.58
2023-01-12T06:02:46.169Z,86.04
2023-01-12T06:03:46.127Z,84.70
2023-01-12T06:04:46.170Z,87.53
2023-01-12T06:05:46.110Z,88.65
2023-01-12T06:06:46.098Z,84.97
2023-01-12T06:07:46.088Z,83.13
2023-01-12T06:08:46.066Z,84.56
2023-01-12T06:09:46.058Z,86.40
2023-01-12T06:10:46.045Z,88.45
2023-01-12T06:11:46.028Z,89.12
2023-01-12T06:12:46.048Z,86.73
2023-01-12T06:13:46.039Z,86.02
2023-01-12T06:14:46.039Z,86.18
2023-01-12T06:15:46.045Z,83.25
2023-01-12T06:16:45.994Z,85.67
2023-01-12T06:17:45.948Z,82.13
2023-01-12T06:18:45.955Z,81.31
2023-01-12T06:19:45.959Z,81.04
2023-01-12T06:20:45.918Z,81.38
2023-01-12T06:21:45.900Z,81.52
2023-01-12T06:22:45.887Z,82.69
2023-01-12T06:23:45.891Z,83.45
2023-01-12T06:24:45.861Z,84.27
2023-01-12T06:25:45.840Z,84.61
2023-01-12T06:26:45.836Z,85.33
2023-01-12T06:27:45.920Z,85.58
2023-01-12T06:28:45.837Z,85.99
2023-01-12T06:29:45.791Z,86.50
2023-01-12T06:30:45.829Z,86.95
2023-01-12T06:31:45.760Z,87.05
2023-01-12T06:32:45.761Z,87.46
2023-01-12T06:33:45.744Z,87.88
2023-01-12T06:34:45.773Z,88.43
2023-01-12T06:35:45.708Z,88.53
2023-01-12T06:36:45.708Z,88.64
2023-01-12T06:37:45.689Z,88.74
2023-01-12T06:38:45.670Z,88.95
2023-01-12T06:39:45.681Z,89.04
2023-01-12T06:40:45.659Z,89.56
2023-01-12T06:41:45.639Z,89.36
2023-01-12T06:42:45.630Z,89.25
2023-01-12T06:43:45.599Z,89.40
2023-01-12T06:44:47.187Z,89.76
2023-01-12T06:45:45.579Z,89.81
2023-01-12T06:46:45.569Z,89.70
2023-01-12T06:47:45.571Z,89.60
2023-01-12T06:48:45.553Z,89.81
2023-01-12T06:49:45.534Z,89.91
2023-01-12T06:50:45.525Z,90.32
2023-01-12T06:51:45.511Z,90.73
2023-01-12T06:52:45.488Z,90.32
2023-01-12T06:53:45.487Z,90.01
2023-01-12T06:54:45.479Z,90.01
2023-01-12T06:55:45.448Z,90.12
2023-01-12T06:56:45.440Z,90.22
2023-01-12T06:57:45.409Z,90.32
2023-01-12T06:58:45.409Z,90.22
2023-01-12T06:59:45.411Z,90.22
2023-01-12T07:00:45.401Z,90.12
2023-01-12T07:01:45.575Z,90.12
2023-01-12T07:02:45.361Z,90.22
2023-01-12T07:03:45.346Z,90.42
2023-01-12T07:04:45.415Z,90.53
2023-01-12T07:05:45.320Z,90.73
2023-01-12T07:06:45.320Z,90.94
2023-01-12T07:07:45.311Z,90.73
2023-01-12T07:08:45.286Z,90.73
2023-01-12T07:09:45.301Z,90.83
2023-01-12T07:10:45.270Z,91.04
2023-01-12T07:11:45.240Z,91.14
2023-01-12T07:12:45.249Z,91.25
2023-01-12T07:13:45.203Z,91.25
2023-01-12T07:14:45.224Z,91.14
2023-01-12T07:15:45.257Z,91.25
2023-01-12T07:16:45.225Z,91.35
2023-01-12T07:17:45.158Z,91.55
2023-01-12T07:18:45.213Z,91.45
2023-01-12T07:19:45.183Z,91.45
2023-01-12T07:20:45.143Z,91.45
2023-01-12T07:21:45.093Z,91.45
2023-01-12T07:22:45.134Z,91.66
2023-01-12T07:23:45.113Z,91.97
2023-01-12T07:24:45.072Z,91.76
2023-01-12T07:25:45.058Z,91.76
2023-01-12T07:26:45.073Z,91.97
2023-01-12T07:27:45.011Z,91.97
2023-01-12T07:28:45.001Z,91.86
2023-01-12T07:29:45.017Z,91.97
2023-01-12T07:30:45.050Z,91.97
2023-01-12T07:31:44.991Z,92.17
2023-01-12T07:32:44.949Z,92.38
2023-01-12T07:33:44.939Z,92.17
2023-01-12T07:34:44.925Z,91.76
2023-01-12T07:35:44.921Z,92.17
2023-01-12T07:36:44.912Z,92.38
2023-01-12T07:37:44.881Z,92.48
2023-01-12T07:38:44.864Z,92.83
2023-01-12T07:39:44.853Z,92.89
2023-01-12T07:40:44.851Z,93.10
2023-01-12T07:41:44.840Z,93.10
2023-01-12T07:42:44.820Z,93.10
2023-01-12T07:43:44.811Z,92.99
2023-01-12T07:44:44.797Z,93.04
2023-01-12T07:45:44.805Z,93.14
2023-01-12T07:46:44.890Z,93.14
2023-01-12T07:47:44.759Z,93.14
2023-01-12T07:48:44.740Z,93.04
2023-01-12T07:49:44.733Z,92.93
2023-01-12T07:50:44.721Z,92.93
2023-01-12T07:51:44.701Z,93.14
2023-01-12T07:52:44.689Z,93.24
2023-01-12T07:53:44.681Z,93.35
2023-01-12T07:54:44.665Z,93.35
2023-01-12T07:55:44.669Z,93.35
2023-01-12T07:56:44.639Z,93.14
2023-01-12T07:57:44.620Z,93.24
2023-01-12T07:58:44.622Z,93.04
2023-01-12T07:59:44.599Z,92.52
2023-01-12T08:00:44.611Z,92.52
2023-01-12T08:01:44.692Z,92.73
2023-01-12T08:02:44.566Z,92.73
2023-01-12T08:03:44.629Z,92.73
2023-01-12T08:04:44.534Z,92.63
2023-01-12T08:05:44.581Z,92.63
2023-01-12T08:06:44.493Z,92.73
2023-01-12T08:07:44.481Z,92.83
2023-01-12T08:08:44.578Z,93.04
2023-01-12T08:09:44.475Z,92.93
2023-01-12T08:10:44.480Z,92.93
2023-01-12T08:11:44.454Z,92.83
2023-01-12T08:12:44.413Z,92.69
2023-01-12T08:13:44.410Z,92.69
2023-01-12T08:14:44.410Z,92.63
2023-01-12T08:15:44.397Z,92.79
2023-01-12T08:16:44.366Z,92.89
2023-01-12T08:17:44.362Z,92.89
2023-01-12T08:18:44.332Z,92.99
2023-01-12T08:19:44.320Z,92.99
2023-01-12T08:20:44.331Z,92.99
2023-01-12T08:21:44.300Z,92.79
2023-01-12T08:22:44.283Z,92.58
2023-01-12T08:23:44.281Z,92.89
2023-01-12T08:24:44.269Z,92.99
2023-01-12T08:25:44.279Z,92.69
2023-01-12T08:26:44.238Z,92.69
2023-01-12T08:27:44.231Z,92.79
2023-01-12T08:28:44.224Z,92.79
2023-01-12T08:29:44.289Z,92.99
2023-01-12T08:30:44.230Z,92.79
2023-01-12T08:31:44.196Z,92.79
2023-01-12T08:32:44.151Z,92.99
2023-01-12T08:33:44.163Z,92.99
2023-01-12T08:34:44.128Z,92.99
2023-01-12T08:35:44.149Z,92.79
2023-01-12T08:36:44.671Z,92.89
2023-01-12T08:37:44.115Z,92.48
2023-01-12T08:38:44.130Z,92.58
2023-01-12T08:39:44.072Z,92.69
2023-01-12T08:40:44.074Z,92.69
2023-01-12T08:41:44.059Z,92.58
2023-01-12T08:42:44.024Z,92.69
2023-01-12T08:43:44.020Z,92.58
2023-01-12T08:44:43.993Z,92.58
2023-01-12T08:45:43.979Z,92.69
2023-01-12T08:46:44.038Z,92.58
2023-01-12T08:47:43.952Z,92.48
2023-01-12T08:48:44.003Z,92.69
2023-01-12T08:49:43.928Z,92.79
2023-01-12T08:50:43.946Z,92.69
2023-01-12T08:51:43.934Z,92.74
2023-01-12T08:52:43.880Z,92.85
2023-01-12T08:53:43.874Z,92.74
2023-01-12T08:54:43.880Z,92.64
2023-01-12T08:55:43.841Z,92.54
2023-01-12T08:56:43.864Z,92.64
2023-01-12T08:57:43.833Z,92.44
2023-01-12T08:58:43.810Z,92.23
2023-01-12T08:59:43.810Z,92.23
2023-01-12T09:00:43.807Z,92.44
2023-01-12T09:01:43.930Z,92.44
2023-01-12T09:02:43.791Z,92.64
2023-01-12T09:03:43.751Z,92.64
2023-01-12T09:04:43.724Z,92.64
2023-01-12T09:05:43.708Z,92.54
2023-01-12T09:06:43.730Z,92.74
2023-01-12T09:07:43.697Z,92.74
2023-01-12T09:08:43.678Z,92.85
2023-01-12T09:09:43.674Z,93.05
2023-01-12T09:10:43.661Z,93.36
2023-01-12T09:11:43.656Z,93.36
2023-01-12T09:12:43.631Z,92.95
2023-01-12T09:13:43.630Z,92.64
2023-01-12T09:14:43.592Z,92.85
2023-01-12T09:15:56.474Z,92.85
2023-01-12T09:16:44.632Z,93.16
2023-01-12T09:17:43.564Z,93.26
2023-01-12T09:18:43.541Z,93.16
2023-01-12T09:19:43.542Z,93.05
2023-01-12T09:20:43.534Z,93.26
2023-01-12T09:21:43.534Z,93.46
2023-01-12T09:22:43.496Z,93.05
2023-01-12T09:23:43.482Z,93.16
2023-01-12T09:24:43.452Z,93.16
2023-01-12T09:25:43.455Z,93.36
2023-01-12T09:26:43.452Z,93.36
2023-01-12T09:27:43.432Z,93.46
2023-01-12T09:28:43.422Z,93.57
2023-01-12T09:29:43.414Z,93.67
2023-01-12T09:30:43.403Z,93.36
2023-01-12T09:31:43.454Z,93.12
2023-01-12T09:32:43.364Z,92.74
2023-01-12T09:33:43.364Z,92.80
2023-01-12T09:34:43.348Z,93.12
2023-01-12T09:35:43.311Z,93.01
2023-01-12T09:36:43.316Z,93.12
2023-01-12T09:37:43.282Z,93.01
2023-01-12T09:38:43.285Z,92.70
2023-01-12T09:39:43.251Z,92.50
2023-01-12T09:40:43.271Z,92.70
2023-01-12T09:41:43.251Z,92.91
2023-01-12T09:42:43.252Z,93.01
2023-01-12T09:43:43.219Z,93.32
2023-01-12T09:44:43.192Z,93.42
2023-01-12T09:45:43.229Z,93.12
2023-01-12T09:46:43.172Z,92.91
2023-01-12T09:47:43.173Z,93.01
2023-01-12T09:48:43.152Z,93.21
2023-01-12T09:49:43.152Z,93.21
2023-01-12T09:50:43.146Z,93.42
2023-01-12T09:51:43.121Z,93.32
2023-01-12T09:52:43.146Z,93.12
2023-01-12T09:53:43.092Z,93.21
2023-01-12T09:54:43.071Z,93.32
2023-01-12T09:55:43.056Z,93.12
2023-01-12T09:56:43.046Z,92.91
2023-01-12T09:57:43.050Z,93.12
2023-01-12T09:58:43.033Z,92.80
2023-01-12T09:59:43.011Z,92.80
2023-01-12T10:00:43.001Z,93.12
2023-01-12T10:01:43.042Z,92.97
2023-01-12T10:02:43.091Z,93.17
2023-01-12T10:03:42.979Z,92.76
2023-01-12T10:04:42.932Z,92.86
2023-01-12T10:05:42.940Z,93.07
2023-01-12T10:06:42.933Z,93.27
2023-01-12T10:07:42.937Z,93.38
2023-01-12T10:08:42.891Z,93.48
2023-01-12T10:09:42.871Z,93.48
2023-01-12T10:10:42.873Z,93.59
2023-01-12T10:11:42.862Z,93.59
2023-01-12T10:12:42.865Z,92.91
2023-01-12T10:13:42.824Z,92.76
2023-01-12T10:14:42.846Z,92.86
2023-01-12T10:15:42.794Z,93.17
2023-01-12T10:16:42.845Z,93.48
2023-01-12T10:17:51.439Z,93.07
2023-01-12T10:18:44.846Z,93.17
2023-01-12T10:19:42.767Z,93.38
2023-01-12T10:20:42.746Z,93.17
2023-01-12T10:21:42.775Z,92.55
2023-01-12T10:22:42.728Z,92.55
2023-01-12T10:23:42.708Z,93.07
2023-01-12T10:24:42.688Z,92.97
2023-01-12T10:25:42.671Z,93.17
2023-01-12T10:26:42.663Z,93.17
2023-01-12T10:27:42.675Z,92.97
2023-01-12T10:28:42.624Z,92.97
2023-01-12T10:29:42.613Z,93.07
2023-01-12T10:30:42.604Z,92.76
2023-01-12T10:31:42.647Z,92.86
2023-01-12T10:32:42.573Z,93.17
2023-01-12T10:33:42.599Z,93.48
2023-01-12T10:34:42.543Z,93.07
2023-01-12T10:35:42.534Z,93.07
2023-01-12T10:36:42.534Z,93.07
2023-01-12T10:37:42.504Z,92.97
2023-01-12T10:38:42.518Z,92.97
2023-01-12T10:39:42.485Z,92.66
2023-01-12T10:40:42.488Z,92.86
2023-01-12T10:41:42.466Z,93.17
2023-01-12T10:42:42.442Z,92.97
2023-01-12T10:43:42.462Z,92.76
2023-01-12T10:44:42.413Z,92.86
2023-01-12T10:45:42.430Z,92.86
2023-01-12T10:46:42.394Z,92.97
2023-01-12T10:47:42.383Z,92.46
2023-01-12T10:48:42.393Z,92.55
2023-01-12T10:49:42.345Z,92.76
2023-01-12T10:50:42.373Z,92.82
2023-01-12T10:51:42.356Z,92.82
2023-01-12T10:52:42.302Z,92.97
2023-01-12T10:53:42.370Z,93.33
2023-01-12T10:54:42.312Z,93.13
2023-01-12T10:55:42.274Z,92.61
2023-01-12T10:56:49.329Z,93.13
2023-01-12T10:57:42.256Z,93.23
2023-01-12T10:58:42.257Z,93.23
2023-01-12T10:59:42.217Z,93.44
2023-01-12T11:00:42.218Z,93.02
2023-01-12T11:01:42.321Z,93.33
2023-01-12T11:02:42.233Z,93.64
2023-01-12T11:03:42.193Z,93.64
2023-01-12T11:04:42.167Z,93.74
2023-01-12T11:05:42.127Z,93.85
2023-01-12T11:06:42.127Z,93.85
2023-01-12T11:07:42.119Z,93.64
2023-01-12T11:08:42.120Z,92.82
2023-01-12T11:09:42.089Z,92.72
2023-01-12T11:10:42.091Z,92.82
2023-01-12T11:11:42.079Z,93.02
2023-01-12T11:12:42.046Z,93.33
2023-01-12T11:13:42.112Z,93.44
2023-01-12T11:14:42.028Z,93.02
2023-01-12T11:15:42.016Z,92.72
2023-01-12T11:16:42.107Z,92.82
2023-01-12T11:17:41.986Z,93.02
2023-01-12T11:18:41.992Z,93.13
2023-01-12T11:19:41.977Z,92.82
2023-01-12T11:20:41.963Z,92.82
2023-01-12T11:21:41.929Z,93.02
2023-01-12T11:22:41.924Z,93.23
2023-01-12T11:23:41.925Z,93.44
2023-01-12T11:24:41.905Z,92.93
2023-01-12T11:25:41.885Z,92.82
2023-01-12T11:26:41.876Z,92.72
2023-01-12T11:27:41.882Z,92.72
2023-01-12T11:28:41.847Z,92.82
2023-01-12T11:29:41.869Z,92.72
2023-01-12T11:30:41.897Z,92.41
2023-01-12T11:31:41.810Z,91.90
2023-01-12T11:32:41.793Z,91.59
2023-01-12T11:33:41.776Z,91.59
2023-01-12T11:34:41.795Z,91.80
2023-01-12T11:35:41.759Z,92.00
2023-01-12T11:36:41.752Z,91.90
2023-01-12T11:37:41.746Z,91.69
2023-01-12T11:38:41.709Z,91.65
2023-01-12T11:39:41.717Z,91.96
2023-01-12T11:40:41.698Z,91.96
2023-01-12T11:41:41.670Z,92.10
2023-01-12T11:42:41.650Z,92.00
2023-01-12T11:43:41.652Z,91.90
2023-01-12T11:44:41.667Z,92.00
2023-01-12T11:45:41.688Z,92.06
2023-01-12T11:46:41.640Z,92.06
2023-01-12T11:47:42.031Z,92.27
2023-01-12T11:48:41.592Z,92.27
2023-01-12T11:49:41.590Z,91.44
2023-01-12T11:50:41.568Z,91.55
2023-01-12T11:51:41.536Z,92.06
2023-01-12T11:52:41.532Z,92.27
2023-01-12T11:53:41.724Z,91.96
2023-01-12T11:54:41.528Z,92.06
2023-01-12T11:55:41.489Z,91.86
2023-01-12T11:56:41.473Z,91.96
2023-01-12T11:57:41.470Z,91.96
2023-01-12T11:58:41.450Z,91.86
2023-01-12T11:59:41.771Z,91.96
2023-01-12T12:00:41.434Z,91.86
2023-01-12T12:01:41.409Z,91.55
2023-01-12T12:02:41.448Z,91.55
2023-01-12T12:03:41.432Z,91.65
2023-01-12T12:04:41.406Z,91.24
2023-01-12T12:05:41.501Z,91.44
2023-01-12T12:06:41.360Z,91.44
2023-01-12T12:07:41.329Z,91.24
2023-01-12T12:08:41.319Z,90.62
2023-01-12T12:09:41.399Z,90.93
2023-01-12T12:10:41.298Z,91.14
2023-01-12T12:11:42.014Z,91.03
2023-01-12T12:12:41.260Z,91.44
2023-01-12T12:13:41.251Z,91.75
2023-01-12T12:14:41.255Z,91.75
2023-01-12T12:15:41.245Z,91.44
2023-01-12T12:16:41.220Z,91.55
2023-01-12T12:17:41.873Z,91.86
2023-01-12T12:18:41.190Z,91.65
2023-01-12T12:19:41.179Z,91.65
2023-01-12T12:20:41.180Z,91.75
2023-01-12T12:21:41.150Z,91.24
2023-01-12T12:22:41.145Z,90.83
2023-01-12T12:23:41.623Z,90.73
2023-01-12T12:24:41.108Z,91.14
2023-01-12T12:25:41.109Z,91.14
2023-01-12T12:26:41.087Z,90.62
2023-01-12T12:27:41.069Z,90.52
2023-01-12T12:28:41.083Z,90.73
2023-01-12T12:29:41.243Z,90.93
2023-01-12T12:30:41.152Z,91.24
2023-01-12T12:31:41.010Z,91.14
2023-01-12T12:32:41.014Z,91.24
2023-01-12T12:33:40.991Z,91.14
2023-01-12T12:34:40.979Z,91.14
2023-01-12T12:35:41.557Z,91.44
2023-01-12T12:36:40.948Z,91.55
2023-01-12T12:37:40.930Z,91.35
2023-01-12T12:38:40.928Z,91.65
2023-01-12T12:39:40.910Z,91.86
2023-01-12T12:40:40.911Z,91.24
2023-01-12T12:41:41.618Z,91.24
2023-01-12T12:42:40.877Z,91.44
2023-01-12T12:43:40.859Z,91.55
2023-01-12T12:44:40.851Z,91.65
2023-01-12T12:45:40.853Z,91.65
2023-01-12T12:46:40.849Z,91.75
2023-01-12T12:47:42.118Z,91.55
2023-01-12T12:48:40.825Z,91.86
2023-01-12T12:49:40.772Z,91.86
2023-01-12T12:50:40.791Z,91.55
2023-01-12T12:51:40.752Z,91.44
2023-01-12T12:52:40.740Z,91.96